Philadelphia, MO

8:51 PM CDT on July 27, 2016 (GMT -0500)
Marion Co RII Fire Station | | Change Station

Elev 705 ft 39.84 °N, 91.73 °W | Updated 20 days ago

Partly Cloudy
Partly Cloudy
75 °F
Feels Like 75 °F
N
3
Wind Variable Wind from SE
Gusts mph

Today
High -- | Low -- °F
--% Chance of Precip.
Yesterday
High -- | Low -- °F
Precip. -- in
Pressure 29.91 in
Visibility 5.0 miles
Clouds Clear
Dew Point 71 °F
Humidity 88%
Rainfall in
Snow Depth Not available.
6:01 AM 8:24 PM
Last Quarter, 37% visible
METAR KHAE 280135Z AUTO 00000KT 5SM BR CLR 26/23 A2991 RMK AO2
Pressure 29.91 in
Visibility 5.0 miles
Clouds Clear
Dew Point 71 °F
Humidity 88%
Rainfall in
Snow Depth Not available.
6:01 AM 8:24 PM
Last Quarter, 37% visible
METAR KHAE 280135Z AUTO 00000KT 5SM BR CLR 26/23 A2991 RMK AO2

10-Day Weather Forecast

Almanac

Astronomy

Jul. 27, 2016 Rise Set
Actual Time
Civil Twilight
Nautical Twilight
Astronomical Twilight
Moon
Length of Visible Light
Length of Day
Tomorrow will be .
, % of the Moon is Illuminated

Today's Extremes

State Highs State Lows

Community

WunderPhotos

Upload Photos

1,928,005 photos uploaded!

WunderBlog® & News

Nearby

Air Quality

  Air Quality AQ Index Pollutant
Not available.

Snow Depth

Station Depth Elevation

Earthquake Activity

City Distance Mag. Time & Date
Minimum magnitude displayed is 2.5.

Coastal Water Temperatures

Place Temperature

Stations

Nearby Weather Stations

Station Location Temp. Windchill Dew Point Humidity Wind Precip. Elev Updated Type
                   

Watches & Warnings

There are currently no watches in effect.